2016 Summer Series I

Charleston Ocean Racing Association

 

Results as of 7:05 on May 26, 2016

RACE1 - A Fleet - 05/25/16 at 18:15:00

Start: A Fleet, Finishes: Finish time, Time: 18:15:00, Distance: 7.9, Course: 12
Fleet Boat Class Nat SailNo HelmName Rating Paid Start Finish Elapsed Corrected Notes
A MOOSE DOWN J 120 CF   521201 Moore 48 Yes 18:15:00 19:28:34 1:13:34 1:07:15  
A Fearless ID 35   35029 Lucas 36 Yes 18:15:00 19:27:18 1:12:18 1:07:34  
A WARHORSE ID 35 MOD   35006 Frohock 36 Yes 18:15:00 19:28:04 1:13:04 1:08:20  
A ARROW J 35   32864 Schwenzfeier 72 Yes 18:15:00 19:33:00 1:18:00 1:08:31  
A RUMFRONT J 105 87 / 87 51306 Martschink/McKemzie. 87 Yes 18:15:00 19:35:06 1:20:06 1:08:39  
A DAUNTLESS BENETEAU 47.7   28477B Terwilliger 21 Yes 18:15:00 19:26:31 1:11:31 1:08:45  
A SKIMMER J 105   313 Martschink/Hagood 87 YES 18:15:00 19:35:36 1:20:36 1:09:09  
A Cougar Melges 30   USA 105 Goss 42 Yes 18:15:00 19:31:11 1:16:11 1:10:39  
A PHOTON ID 35   35033 Hibdon 36 Yes 18:15:00 19:31:35 1:16:35 1:11:51  
A TEMPTRESS SR33 OB   50484 Hibdon 66 Yes 18:15:00 19:36:14 1:21:14 1:12:33  
A Different Drummer Azzura 310   1000 Gaag 57 YES 18:15:00 19:38:47 1:23:47 1:16:17  
A SOUL J 36   63393 Coyer 84 Yes     DNF    

RACE1 - B Fleet - 05/25/16 at 18:15:00

Start: B Fleet, Finishes: Finish time, Time: 18:20:00, Distance: 5.7, Course: 11
Fleet Boat Class Nat SailNo HelmName Rating Paid Start Finish Elapsed Corrected Notes
B MATADORA J 24   5259 Rogge 165 Yes 18:20:00 19:23:48 1:03:48 0:48:08  
B Blind Date J 24   USA1829 Adams 165 Yes 18:20:00 19:23:59 1:03:59 0:48:19  
B CHICORA J 24   2349 Hill 165 Yes 18:20:00 19:25:04 1:05:04 0:49:24  
B Sole Vento S2 7.9   172 Cain 165 YES 18:20:00 19:25:56 1:05:56 0:50:16  
B JO MAMMA J 24   3266 Palazzo 165 Yes 18:20:00 19:27:20 1:07:20 0:51:40  

 

RACE1 - C Fleet - 05/25/16 at 18:15:00

Start: C Fleet, Finishes: Finish time, Time: 18:25:00, Distance: 5.7, Course: 11
Fleet Boat Class Nat SailNo HelmName Rating Paid Start Finish Elapsed Corrected Notes
C Fogdog Santana 30/30 GP 120/ 145 83472 Guhl 120 Yes 18:25:00 19:30:21 1:05:21 0:53:57  
C Bliss Alerion Express 38-2 111/ 121 52789 Brooks 111 Yes 18:25:00 19:29:50 1:04:50 0:54:17  
C CELADON MOORINGS 510   51704 Lesniak 96 Yes 18:25:00 19:32:12 1:07:12 0:58:05  
C INDIGO Pearson Vanguard 228/ 246 184 Dodds 228   18:25:00 19:44:53 1:19:53 0:58:13  
C Mental Heeling Catalina 30 195/ 221 5399 Keeney 195   18:25:00 19:38:50 DNF    

RACE1 - N Fleet - 05/25/16 at 18:15:00

Start: N Fleet, Finishes: Finish time, Time: 18:30:00, Distance: 4.6, Course: 4
Fleet Boat Class Nat SailNo HelmName Rating Paid Start Finish Elapsed Corrected Notes
N Deez Knots Hood 42 Custom 114/ 141 6565 Eggleton 141 Yes 18:30:00 19:19:07 0:49:07 0:38:18  
N Rooster IC24 165/ 189 2519 McDonald 189 Yes 18:30:00 19:23:07 0:53:07 0:38:38  
N ICE PAC J 33 87 / 99 42533 Davis 99 Yes 18:30:00 19:18:55 0:48:55 0:41:20  
N FATE Beneteau 49 102/ 127 15 Ryan 127 Yes 18:30:00 19:21:42 0:51:42 0:41:58  
N Willaway Tartan 37-2 C 132/ 160 73169 Cross 160 Yes 18:30:00 19:30:44 1:00:44 0:48:28  
N SANTIAGO Beneteau OC 361 147/ 173 B 361 Chipman 173 Yes 18:30:00 19:31:46 1:01:46 0:48:30  
N Kelly Krew Catalina 385 WK 141/ 166 212 Kelly 166 Yes 18:30:00 19:38:19 1:08:19 0:55:35  

RACE1 - D Fleet - 05/25/16 at 18:15:00

Start: D Fleet, Finishes: Finish time, Time: 18:35:00, Distance: 4.6, Course: 4
Fleet Boat Class Nat SailNo HelmName Rating Paid Start Finish Elapsed Corrected Notes
D SEA CAMPER CATALINA 22 270/ 295 11629 Wood 295 Yes 18:35:00 19:38:10 1:03:10 0:40:33  
D KNOT TWINS Pearson 30 183/ 209 1133 Smith 209 Yes 18:35:00 19:32:27 0:57:27 0:41:26  
D DIRECTION Morgan 30-2 174/ 201 7 Springer 201 Yes 18:35:00 19:32:26 0:57:26 0:42:01  
D Kittiwake Catalina 30 192/ 218 261 Boring 218 YES 18:35:00 19:38:20 1:03:20 0:46:37  
D Tranquility Catalina 30 TM BS WK 186/ 212 381 Powell 212 Yes 18:35:00 19:54:56 1:19:56 1:03:41